sensor_id;sensor_type;location;lat;lon;timestamp;P1;durP1;ratioP1;P2;durP2;ratioP2
1328;SDS011;658;48.820;9.354;2022-09-23T00:00:42;2.13;;;2.03;;
1328;SDS011;658;48.820;9.354;2022-09-23T00:04:43;2.07;;;1.97;;
1328;SDS011;658;48.820;9.354;2022-09-23T00:08:45;2.33;;;2.00;;
1328;SDS011;658;48.820;9.354;2022-09-23T00:12:48;1.80;;;1.70;;
1328;SDS011;658;48.820;9.354;2022-09-23T00:16:49;2.03;;;1.93;;
1328;SDS011;658;48.820;9.354;2022-09-23T00:20:50;1.87;;;1.77;;
1328;SDS011;658;48.820;9.354;2022-09-23T00:24:51;2.03;;;1.93;;
1328;SDS011;658;48.820;9.354;2022-09-23T00:28:52;2.33;;;2.13;;
1328;SDS011;658;48.820;9.354;2022-09-23T00:32:53;2.43;;;2.23;;
1328;SDS011;658;48.820;9.354;2022-09-23T00:36:55;2.40;;;2.17;;
1328;SDS011;658;48.820;9.354;2022-09-23T00:40:56;1.80;;;1.70;;
1328;SDS011;658;48.820;9.354;2022-09-23T00:45:00;2.03;;;1.90;;
1328;SDS011;658;48.820;9.354;2022-09-23T00:49:22;1.90;;;1.63;;
1328;SDS011;658;48.820;9.354;2022-09-23T00:53:27;2.10;;;1.90;;
1328;SDS011;658;48.820;9.354;2022-09-23T00:57:28;1.87;;;1.77;;
1328;SDS011;658;48.820;9.354;2022-09-23T01:01:30;2.00;;;1.90;;
1328;SDS011;658;48.820;9.354;2022-09-23T01:05:32;2.07;;;1.97;;
1328;SDS011;658;48.820;9.354;2022-09-23T01:09:33;2.47;;;2.23;;
1328;SDS011;658;48.820;9.354;2022-09-23T01:13:41;1.80;;;1.70;;
1328;SDS011;658;48.820;9.354;2022-09-23T01:31:04;2.10;;;2.00;;
1328;SDS011;658;48.820;9.354;2022-09-23T01:39:44;2.50;;;2.30;;
1328;SDS011;658;48.820;9.354;2022-09-23T01:48:06;2.37;;;2.17;;
1328;SDS011;658;48.820;9.354;2022-09-23T01:52:36;1.97;;;1.87;;
1328;SDS011;658;48.820;9.354;2022-09-23T01:56:51;2.07;;;1.97;;
1328;SDS011;658;48.820;9.354;2022-09-23T02:00:59;1.90;;;1.80;;
1328;SDS011;658;48.820;9.354;2022-09-23T02:05:09;2.23;;;2.03;;
1328;SDS011;658;48.820;9.354;2022-09-23T02:09:34;1.97;;;1.87;;
1328;SDS011;658;48.820;9.354;2022-09-23T02:13:54;2.17;;;1.97;;
1328;SDS011;658;48.820;9.354;2022-09-23T02:18:08;1.90;;;1.80;;
1328;SDS011;658;48.820;9.354;2022-09-23T02:22:20;2.17;;;2.07;;
1328;SDS011;658;48.820;9.354;2022-09-23T02:30:37;2.03;;;1.93;;
1328;SDS011;658;48.820;9.354;2022-09-23T02:39:02;2.20;;;2.10;;
1328;SDS011;658;48.820;9.354;2022-09-23T02:43:11;2.13;;;2.03;;
1328;SDS011;658;48.820;9.354;2022-09-23T02:47:19;1.97;;;1.87;;
1328;SDS011;658;48.820;9.354;2022-09-23T02:51:23;2.40;;;2.30;;
1328;SDS011;658;48.820;9.354;2022-09-23T02:55:25;2.03;;;1.90;;
1328;SDS011;658;48.820;9.354;2022-09-23T02:59:30;2.30;;;2.20;;
1328;SDS011;658;48.820;9.354;2022-09-23T03:03:38;2.53;;;2.33;;
1328;SDS011;658;48.820;9.354;2022-09-23T03:21:04;1.80;;;1.70;;
1328;SDS011;658;48.820;9.354;2022-09-23T03:25:11;2.30;;;2.20;;
1328;SDS011;658;48.820;9.354;2022-09-23T03:29:14;2.00;;;1.90;;
1328;SDS011;658;48.820;9.354;2022-09-23T03:33:18;2.70;;;2.50;;
1328;SDS011;658;48.820;9.354;2022-09-23T03:37:31;2.53;;;2.33;;
1328;SDS011;658;48.820;9.354;2022-09-23T03:41:54;2.50;;;2.33;;
1328;SDS011;658;48.820;9.354;2022-09-23T03:45:58;2.47;;;2.27;;
1328;SDS011;658;48.820;9.354;2022-09-23T03:50:00;2.43;;;2.30;;
1328;SDS011;658;48.820;9.354;2022-09-23T03:54:01;2.03;;;1.90;;
1328;SDS011;658;48.820;9.354;2022-09-23T03:58:01;2.33;;;2.23;;
1328;SDS011;658;48.820;9.354;2022-09-23T04:02:03;2.20;;;2.10;;
1328;SDS011;658;48.820;9.354;2022-09-23T04:06:06;2.30;;;2.10;;
1328;SDS011;658;48.820;9.354;2022-09-23T04:10:07;2.17;;;2.07;;
1328;SDS011;658;48.820;9.354;2022-09-23T04:14:08;1.97;;;1.87;;
1328;SDS011;658;48.820;9.354;2022-09-23T04:18:11;2.40;;;2.20;;
1328;SDS011;658;48.820;9.354;2022-09-23T04:22:11;2.00;;;1.90;;
1328;SDS011;658;48.820;9.354;2022-09-23T04:26:12;2.30;;;2.20;;
1328;SDS011;658;48.820;9.354;2022-09-23T04:30:13;1.80;;;1.70;;
1328;SDS011;658;48.820;9.354;2022-09-23T04:34:14;2.30;;;2.10;;
1328;SDS011;658;48.820;9.354;2022-09-23T04:38:16;2.20;;;2.10;;
1328;SDS011;658;48.820;9.354;2022-09-23T04:42:17;2.30;;;2.00;;
1328;SDS011;658;48.820;9.354;2022-09-23T04:46:18;2.13;;;1.90;;
1328;SDS011;658;48.820;9.354;2022-09-23T04:50:19;1.97;;;1.87;;
1328;SDS011;658;48.820;9.354;2022-09-23T04:54:20;2.27;;;2.17;;
1328;SDS011;658;48.820;9.354;2022-09-23T04:58:21;2.00;;;1.90;;
1328;SDS011;658;48.820;9.354;2022-09-23T05:02:22;2.53;;;2.00;;
1328;SDS011;658;48.820;9.354;2022-09-23T05:06:23;2.10;;;2.00;;
1328;SDS011;658;48.820;9.354;2022-09-23T05:10:24;1.80;;;1.70;;
1328;SDS011;658;48.820;9.354;2022-09-23T05:14:25;1.80;;;1.70;;
1328;SDS011;658;48.820;9.354;2022-09-23T05:18:26;2.30;;;2.03;;
1328;SDS011;658;48.820;9.354;2022-09-23T05:22:29;2.17;;;2.07;;
1328;SDS011;658;48.820;9.354;2022-09-23T05:26:30;2.07;;;1.90;;
1328;SDS011;658;48.820;9.354;2022-09-23T05:30:32;2.13;;;2.03;;
1328;SDS011;658;48.820;9.354;2022-09-23T05:34:32;2.07;;;1.97;;
1328;SDS011;658;48.820;9.354;2022-09-23T05:38:33;2.47;;;2.20;;
1328;SDS011;658;48.820;9.354;2022-09-23T05:42:34;2.00;;;1.90;;
1328;SDS011;658;48.820;9.354;2022-09-23T05:46:35;2.07;;;1.97;;
1328;SDS011;658;48.820;9.354;2022-09-23T05:50:35;1.97;;;1.87;;
1328;SDS011;658;48.820;9.354;2022-09-23T05:54:36;2.33;;;2.13;;
1328;SDS011;658;48.820;9.354;2022-09-23T05:58:36;2.30;;;2.10;;
1328;SDS011;658;48.820;9.354;2022-09-23T06:02:37;2.57;;;1.80;;
1328;SDS011;658;48.820;9.354;2022-09-23T06:06:39;2.03;;;1.93;;
1328;SDS011;658;48.820;9.354;2022-09-23T06:10:42;2.30;;;2.10;;
1328;SDS011;658;48.820;9.354;2022-09-23T06:14:44;2.00;;;1.80;;
1328;SDS011;658;48.820;9.354;2022-09-23T06:18:44;2.47;;;2.27;;
1328;SDS011;658;48.820;9.354;2022-09-23T06:22:45;2.23;;;2.10;;
1328;SDS011;658;48.820;9.354;2022-09-23T06:26:46;2.10;;;1.90;;
1328;SDS011;658;48.820;9.354;2022-09-23T06:30:47;2.17;;;1.97;;
1328;SDS011;658;48.820;9.354;2022-09-23T06:34:48;2.10;;;1.90;;
1328;SDS011;658;48.820;9.354;2022-09-23T06:38:48;2.47;;;2.27;;
1328;SDS011;658;48.820;9.354;2022-09-23T06:42:59;2.53;;;2.33;;
1328;SDS011;658;48.820;9.354;2022-09-23T06:47:00;3.43;;;2.10;;
1328;SDS011;658;48.820;9.354;2022-09-23T06:51:02;2.30;;;2.10;;
1328;SDS011;658;48.820;9.354;2022-09-23T06:55:04;2.30;;;2.10;;
1328;SDS011;658;48.820;9.354;2022-09-23T06:59:05;2.47;;;2.27;;
1328;SDS011;658;48.820;9.354;2022-09-23T07:03:08;2.40;;;2.17;;
1328;SDS011;658;48.820;9.354;2022-09-23T07:07:09;1.90;;;1.80;;
1328;SDS011;658;48.820;9.354;2022-09-23T07:11:10;2.00;;;1.80;;
1328;SDS011;658;48.820;9.354;2022-09-23T07:15:12;2.00;;;1.90;;
1328;SDS011;658;48.820;9.354;2022-09-23T07:19:14;1.77;;;1.67;;
1328;SDS011;658;48.820;9.354;2022-09-23T07:23:15;2.20;;;2.10;;
1328;SDS011;658;48.820;9.354;2022-09-23T07:27:16;2.13;;;2.00;;
1328;SDS011;658;48.820;9.354;2022-09-23T07:31:18;2.27;;;2.07;;
1328;SDS011;658;48.820;9.354;2022-09-23T07:35:19;2.60;;;2.13;;
1328;SDS011;658;48.820;9.354;2022-09-23T07:39:20;2.40;;;2.20;;
1328;SDS011;658;48.820;9.354;2022-09-23T07:43:20;1.93;;;1.83;;
1328;SDS011;658;48.820;9.354;2022-09-23T07:47:21;2.07;;;1.97;;
1328;SDS011;658;48.820;9.354;2022-09-23T07:51:23;2.40;;;2.30;;
1328;SDS011;658;48.820;9.354;2022-09-23T07:55:25;2.20;;;2.10;;
1328;SDS011;658;48.820;9.354;2022-09-23T07:59:26;2.17;;;2.00;;
1328;SDS011;658;48.820;9.354;2022-09-23T08:03:27;2.00;;;1.90;;
1328;SDS011;658;48.820;9.354;2022-09-23T08:07:28;2.07;;;1.87;;
1328;SDS011;658;48.820;9.354;2022-09-23T08:11:28;1.87;;;1.77;;
1328;SDS011;658;48.820;9.354;2022-09-23T08:15:30;2.23;;;2.03;;
1328;SDS011;658;48.820;9.354;2022-09-23T08:19:30;2.20;;;2.10;;
1328;SDS011;658;48.820;9.354;2022-09-23T08:23:31;2.40;;;2.20;;
1328;SDS011;658;48.820;9.354;2022-09-23T08:27:32;2.27;;;1.90;;
1328;SDS011;658;48.820;9.354;2022-09-23T08:31:33;1.80;;;1.70;;
1328;SDS011;658;48.820;9.354;2022-09-23T08:35:34;2.60;;;2.00;;
1328;SDS011;658;48.820;9.354;2022-09-23T08:39:34;2.17;;;1.87;;
1328;SDS011;658;48.820;9.354;2022-09-23T08:43:35;2.37;;;2.27;;
1328;SDS011;658;48.820;9.354;2022-09-23T08:47:45;2.30;;;2.20;;
1328;SDS011;658;48.820;9.354;2022-09-23T08:51:50;1.70;;;1.60;;
1328;SDS011;658;48.820;9.354;2022-09-23T08:55:54;1.77;;;1.67;;
1328;SDS011;658;48.820;9.354;2022-09-23T08:59:57;2.50;;;2.00;;
1328;SDS011;658;48.820;9.354;2022-09-23T09:04:01;1.90;;;1.80;;
1328;SDS011;658;48.820;9.354;2022-09-23T09:08:09;1.87;;;1.70;;
1328;SDS011;658;48.820;9.354;2022-09-23T09:12:18;2.13;;;1.83;;
1328;SDS011;658;48.820;9.354;2022-09-23T09:16:37;2.07;;;1.90;;
1328;SDS011;658;48.820;9.354;2022-09-23T09:21:04;1.70;;;1.60;;
1328;SDS011;658;48.820;9.354;2022-09-23T09:25:35;2.10;;;2.00;;
1328;SDS011;658;48.820;9.354;2022-09-23T09:29:36;1.67;;;1.57;;
1328;SDS011;658;48.820;9.354;2022-09-23T09:33:42;1.70;;;1.60;;
1328;SDS011;658;48.820;9.354;2022-09-23T09:37:46;2.17;;;1.63;;
1328;SDS011;658;48.820;9.354;2022-09-23T09:41:48;1.97;;;1.87;;
1328;SDS011;658;48.820;9.354;2022-09-23T09:49:59;1.50;;;1.50;;
1328;SDS011;658;48.820;9.354;2022-09-23T09:54:21;1.43;;;1.33;;
1328;SDS011;658;48.820;9.354;2022-09-23T09:58:24;1.90;;;1.80;;
1328;SDS011;658;48.820;9.354;2022-09-23T10:02:34;1.70;;;1.60;;
1328;SDS011;658;48.820;9.354;2022-09-23T10:06:36;1.60;;;1.50;;
1328;SDS011;658;48.820;9.354;2022-09-23T10:10:37;2.00;;;1.90;;
1328;SDS011;658;48.820;9.354;2022-09-23T10:14:37;1.37;;;1.37;;
1328;SDS011;658;48.820;9.354;2022-09-23T10:18:47;1.80;;;1.70;;
1328;SDS011;658;48.820;9.354;2022-09-23T10:22:50;1.67;;;1.33;;
1328;SDS011;658;48.820;9.354;2022-09-23T10:27:00;1.60;;;1.50;;
1328;SDS011;658;48.820;9.354;2022-09-23T10:31:08;1.70;;;1.60;;
1328;SDS011;658;48.820;9.354;2022-09-23T10:35:14;1.47;;;1.37;;
1328;SDS011;658;48.820;9.354;2022-09-23T10:39:17;1.70;;;1.60;;
1328;SDS011;658;48.820;9.354;2022-09-23T10:53:13;2.87;;;1.63;;
1328;SDS011;658;48.820;9.354;2022-09-23T10:57:35;1.73;;;1.63;;
1328;SDS011;658;48.820;9.354;2022-09-23T11:14:30;2.73;;;1.20;;
1328;SDS011;658;48.820;9.354;2022-09-23T11:36:03;1.77;;;1.60;;
1328;SDS011;658;48.820;9.354;2022-09-23T11:40:16;1.53;;;1.43;;
1328;SDS011;658;48.820;9.354;2022-09-23T11:44:28;1.53;;;1.43;;
1328;SDS011;658;48.820;9.354;2022-09-23T11:52:39;1.20;;;1.20;;
1328;SDS011;658;48.820;9.354;2022-09-23T11:56:45;1.20;;;1.20;;
1328;SDS011;658;48.820;9.354;2022-09-23T12:00:53;1.53;;;1.40;;
1328;SDS011;658;48.820;9.354;2022-09-23T12:05:04;2.10;;;1.43;;
1328;SDS011;658;48.820;9.354;2022-09-23T12:09:17;1.50;;;1.40;;
1328;SDS011;658;48.820;9.354;2022-09-23T12:13:36;1.80;;;1.70;;
1328;SDS011;658;48.820;9.354;2022-09-23T12:26:40;2.40;;;2.20;;
1328;SDS011;658;48.820;9.354;2022-09-23T12:30:42;2.20;;;2.00;;
1328;SDS011;658;48.820;9.354;2022-09-23T12:34:46;2.63;;;2.43;;
1328;SDS011;658;48.820;9.354;2022-09-23T12:38:49;2.63;;;2.40;;
1328;SDS011;658;48.820;9.354;2022-09-23T12:42:53;2.70;;;2.50;;
1328;SDS011;658;48.820;9.354;2022-09-23T12:47:39;2.73;;;2.40;;
1328;SDS011;658;48.820;9.354;2022-09-23T12:51:28;2.70;;;2.50;;
1328;SDS011;658;48.820;9.354;2022-09-23T13:03:57;3.00;;;2.10;;
1328;SDS011;658;48.820;9.354;2022-09-23T13:08:24;2.40;;;2.30;;
1328;SDS011;658;48.820;9.354;2022-09-23T13:12:29;3.00;;;2.00;;
1328;SDS011;658;48.820;9.354;2022-09-23T13:16:34;2.40;;;2.20;;
1328;SDS011;658;48.820;9.354;2022-09-23T13:20:39;2.23;;;2.03;;
1328;SDS011;658;48.820;9.354;2022-09-23T13:24:51;2.37;;;1.93;;
1328;SDS011;658;48.820;9.354;2022-09-23T13:28:53;2.10;;;2.00;;
1328;SDS011;658;48.820;9.354;2022-09-23T13:33:10;1.90;;;1.80;;
1328;SDS011;658;48.820;9.354;2022-09-23T13:41:37;1.83;;;1.70;;
1328;SDS011;658;48.820;9.354;2022-09-23T13:45:38;2.17;;;1.97;;
1328;SDS011;658;48.820;9.354;2022-09-23T13:49:42;2.20;;;2.00;;
1328;SDS011;658;48.820;9.354;2022-09-23T13:53:42;1.77;;;1.67;;
1328;SDS011;658;48.820;9.354;2022-09-23T13:57:55;2.00;;;1.90;;
1328;SDS011;658;48.820;9.354;2022-09-23T14:02:11;1.80;;;1.70;;
1328;SDS011;658;48.820;9.354;2022-09-23T14:06:13;1.87;;;1.77;;
1328;SDS011;658;48.820;9.354;2022-09-23T14:10:19;1.60;;;1.50;;
1328;SDS011;658;48.820;9.354;2022-09-23T14:14:22;1.90;;;1.80;;
1328;SDS011;658;48.820;9.354;2022-09-23T14:18:27;1.83;;;1.73;;
1328;SDS011;658;48.820;9.354;2022-09-23T14:22:37;1.90;;;1.80;;
1328;SDS011;658;48.820;9.354;2022-09-23T14:26:38;1.80;;;1.70;;
1328;SDS011;658;48.820;9.354;2022-09-23T14:30:41;1.63;;;1.53;;
1328;SDS011;658;48.820;9.354;2022-09-23T14:34:45;2.10;;;2.00;;
1328;SDS011;658;48.820;9.354;2022-09-23T14:38:51;1.93;;;1.83;;
1328;SDS011;658;48.820;9.354;2022-09-23T14:42:58;1.77;;;1.60;;
1328;SDS011;658;48.820;9.354;2022-09-23T14:47:05;1.80;;;1.50;;
1328;SDS011;658;48.820;9.354;2022-09-23T14:51:06;1.70;;;1.60;;
1328;SDS011;658;48.820;9.354;2022-09-23T14:55:13;2.37;;;2.20;;
1328;SDS011;658;48.820;9.354;2022-09-23T14:59:34;2.90;;;1.50;;
1328;SDS011;658;48.820;9.354;2022-09-23T15:03:44;2.23;;;2.13;;
1328;SDS011;658;48.820;9.354;2022-09-23T15:07:49;1.93;;;1.80;;
1328;SDS011;658;48.820;9.354;2022-09-23T15:11:58;1.80;;;1.70;;
1328;SDS011;658;48.820;9.354;2022-09-23T15:16:00;2.37;;;2.17;;
1328;SDS011;658;48.820;9.354;2022-09-23T15:20:03;2.00;;;1.90;;
1328;SDS011;658;48.820;9.354;2022-09-23T15:28:34;1.70;;;1.60;;
1328;SDS011;658;48.820;9.354;2022-09-23T15:32:37;2.00;;;1.90;;
1328;SDS011;658;48.820;9.354;2022-09-23T15:36:38;2.03;;;1.90;;
1328;SDS011;658;48.820;9.354;2022-09-23T15:40:40;1.90;;;1.80;;
1328;SDS011;658;48.820;9.354;2022-09-23T15:44:41;2.00;;;1.80;;
1328;SDS011;658;48.820;9.354;2022-09-23T15:48:42;1.93;;;1.83;;
1328;SDS011;658;48.820;9.354;2022-09-23T15:52:54;1.97;;;1.87;;
1328;SDS011;658;48.820;9.354;2022-09-23T15:56:54;1.87;;;1.77;;
1328;SDS011;658;48.820;9.354;2022-09-23T16:00:59;2.07;;;1.97;;
1328;SDS011;658;48.820;9.354;2022-09-23T16:05:04;1.87;;;1.77;;
1328;SDS011;658;48.820;9.354;2022-09-23T16:09:06;2.33;;;2.03;;
1328;SDS011;658;48.820;9.354;2022-09-23T16:13:12;5.90;;;2.40;;
1328;SDS011;658;48.820;9.354;2022-09-23T16:17:13;2.00;;;1.90;;
1328;SDS011;658;48.820;9.354;2022-09-23T16:21:14;2.07;;;1.87;;
1328;SDS011;658;48.820;9.354;2022-09-23T16:25:17;1.73;;;1.63;;
1328;SDS011;658;48.820;9.354;2022-09-23T16:29:20;4.23;;;2.00;;
1328;SDS011;658;48.820;9.354;2022-09-23T16:33:20;2.07;;;1.97;;
1328;SDS011;658;48.820;9.354;2022-09-23T16:37:21;2.33;;;2.20;;
1328;SDS011;658;48.820;9.354;2022-09-23T16:41:23;3.33;;;2.53;;
1328;SDS011;658;48.820;9.354;2022-09-23T16:45:24;3.57;;;3.30;;
1328;SDS011;658;48.820;9.354;2022-09-23T16:49:25;3.70;;;3.40;;
1328;SDS011;658;48.820;9.354;2022-09-23T16:53:27;3.60;;;3.13;;
1328;SDS011;658;48.820;9.354;2022-09-23T16:57:28;2.80;;;2.53;;
1328;SDS011;658;48.820;9.354;2022-09-23T17:01:29;3.50;;;2.90;;
1328;SDS011;658;48.820;9.354;2022-09-23T17:05:48;3.73;;;3.00;;
1328;SDS011;658;48.820;9.354;2022-09-23T17:09:49;3.13;;;2.83;;
1328;SDS011;658;48.820;9.354;2022-09-23T17:13:49;2.80;;;2.60;;
1328;SDS011;658;48.820;9.354;2022-09-23T17:17:50;2.97;;;2.70;;
1328;SDS011;658;48.820;9.354;2022-09-23T17:21:51;2.57;;;2.40;;
1328;SDS011;658;48.820;9.354;2022-09-23T17:25:53;3.20;;;2.70;;
1328;SDS011;658;48.820;9.354;2022-09-23T17:29:54;2.40;;;2.20;;
1328;SDS011;658;48.820;9.354;2022-09-23T17:33:54;2.80;;;2.60;;
1328;SDS011;658;48.820;9.354;2022-09-23T17:37:55;2.30;;;2.10;;
1328;SDS011;658;48.820;9.354;2022-09-23T17:41:56;2.60;;;2.40;;
1328;SDS011;658;48.820;9.354;2022-09-23T17:46:04;2.70;;;2.50;;
1328;SDS011;658;48.820;9.354;2022-09-23T17:50:06;2.63;;;2.43;;
1328;SDS011;658;48.820;9.354;2022-09-23T17:54:07;2.97;;;2.70;;
1328;SDS011;658;48.820;9.354;2022-09-23T17:58:07;2.70;;;2.50;;
1328;SDS011;658;48.820;9.354;2022-09-23T18:02:08;3.83;;;2.60;;
1328;SDS011;658;48.820;9.354;2022-09-23T18:06:10;2.80;;;2.60;;
1328;SDS011;658;48.820;9.354;2022-09-23T18:10:11;2.50;;;2.30;;
1328;SDS011;658;48.820;9.354;2022-09-23T18:14:13;2.70;;;2.53;;
1328;SDS011;658;48.820;9.354;2022-09-23T18:18:19;2.43;;;2.33;;
1328;SDS011;658;48.820;9.354;2022-09-23T18:22:19;2.83;;;2.63;;
1328;SDS011;658;48.820;9.354;2022-09-23T18:26:21;2.33;;;2.23;;
1328;SDS011;658;48.820;9.354;2022-09-23T18:30:23;2.30;;;2.20;;
1328;SDS011;658;48.820;9.354;2022-09-23T18:34:24;2.80;;;2.37;;
1328;SDS011;658;48.820;9.354;2022-09-23T18:38:25;2.83;;;2.63;;
1328;SDS011;658;48.820;9.354;2022-09-23T18:42:25;2.33;;;2.23;;
1328;SDS011;658;48.820;9.354;2022-09-23T18:46:27;3.20;;;2.23;;
1328;SDS011;658;48.820;9.354;2022-09-23T18:50:29;2.53;;;2.43;;
1328;SDS011;658;48.820;9.354;2022-09-23T18:54:39;2.60;;;2.40;;
1328;SDS011;658;48.820;9.354;2022-09-23T18:58:49;3.00;;;2.80;;
1328;SDS011;658;48.820;9.354;2022-09-23T19:02:51;2.60;;;2.40;;
1328;SDS011;658;48.820;9.354;2022-09-23T19:06:52;2.23;;;2.03;;
1328;SDS011;658;48.820;9.354;2022-09-23T19:10:59;2.70;;;2.50;;
1328;SDS011;658;48.820;9.354;2022-09-23T19:15:04;2.43;;;2.23;;
1328;SDS011;658;48.820;9.354;2022-09-23T19:19:05;2.50;;;2.40;;
1328;SDS011;658;48.820;9.354;2022-09-23T19:23:06;2.50;;;2.30;;
1328;SDS011;658;48.820;9.354;2022-09-23T19:27:07;2.33;;;2.13;;
1328;SDS011;658;48.820;9.354;2022-09-23T19:31:08;2.80;;;2.60;;
1328;SDS011;658;48.820;9.354;2022-09-23T19:35:09;2.70;;;2.40;;
1328;SDS011;658;48.820;9.354;2022-09-23T19:43:17;2.20;;;2.00;;
1328;SDS011;658;48.820;9.354;2022-09-23T19:47:20;2.63;;;2.47;;
1328;SDS011;658;48.820;9.354;2022-09-23T19:51:20;2.20;;;2.10;;
1328;SDS011;658;48.820;9.354;2022-09-23T19:55:22;3.00;;;2.80;;
1328;SDS011;658;48.820;9.354;2022-09-23T19:59:22;2.70;;;1.87;;
1328;SDS011;658;48.820;9.354;2022-09-23T20:03:25;2.40;;;2.30;;
1328;SDS011;658;48.820;9.354;2022-09-23T20:07:26;2.30;;;2.10;;
1328;SDS011;658;48.820;9.354;2022-09-23T20:11:26;2.20;;;2.10;;
1328;SDS011;658;48.820;9.354;2022-09-23T20:15:27;2.37;;;2.13;;
1328;SDS011;658;48.820;9.354;2022-09-23T20:19:28;2.73;;;2.53;;
1328;SDS011;658;48.820;9.354;2022-09-23T20:23:29;3.00;;;2.30;;
1328;SDS011;658;48.820;9.354;2022-09-23T20:27:30;2.10;;;2.00;;
1328;SDS011;658;48.820;9.354;2022-09-23T20:31:31;2.70;;;2.50;;
1328;SDS011;658;48.820;9.354;2022-09-23T20:35:33;2.73;;;2.40;;
1328;SDS011;658;48.820;9.354;2022-09-23T20:39:34;2.47;;;2.27;;
1328;SDS011;658;48.820;9.354;2022-09-23T20:43:34;2.60;;;2.40;;
1328;SDS011;658;48.820;9.354;2022-09-23T20:47:35;2.73;;;2.53;;
1328;SDS011;658;48.820;9.354;2022-09-23T20:51:36;2.50;;;2.40;;
1328;SDS011;658;48.820;9.354;2022-09-23T20:55:36;2.30;;;2.20;;
1328;SDS011;658;48.820;9.354;2022-09-23T20:59:37;2.73;;;2.53;;
1328;SDS011;658;48.820;9.354;2022-09-23T21:03:40;2.53;;;2.30;;
1328;SDS011;658;48.820;9.354;2022-09-23T21:07:46;2.37;;;2.17;;
1328;SDS011;658;48.820;9.354;2022-09-23T21:11:46;2.47;;;2.27;;
1328;SDS011;658;48.820;9.354;2022-09-23T21:15:47;2.60;;;2.40;;
1328;SDS011;658;48.820;9.354;2022-09-23T21:19:48;2.97;;;2.40;;
1328;SDS011;658;48.820;9.354;2022-09-23T21:23:49;2.60;;;2.40;;
1328;SDS011;658;48.820;9.354;2022-09-23T21:27:50;2.70;;;2.50;;
1328;SDS011;658;48.820;9.354;2022-09-23T21:31:52;2.43;;;2.33;;
1328;SDS011;658;48.820;9.354;2022-09-23T21:35:56;2.23;;;2.10;;
1328;SDS011;658;48.820;9.354;2022-09-23T21:39:57;2.53;;;2.33;;
1328;SDS011;658;48.820;9.354;2022-09-23T21:44:17;2.47;;;2.37;;
1328;SDS011;658;48.820;9.354;2022-09-23T21:48:17;2.60;;;2.40;;
1328;SDS011;658;48.820;9.354;2022-09-23T21:52:18;3.00;;;2.70;;
1328;SDS011;658;48.820;9.354;2022-09-23T21:56:19;2.57;;;2.37;;
1328;SDS011;658;48.820;9.354;2022-09-23T22:00:22;2.60;;;2.40;;
1328;SDS011;658;48.820;9.354;2022-09-23T22:04:22;2.60;;;2.40;;
1328;SDS011;658;48.820;9.354;2022-09-23T22:08:23;2.47;;;2.23;;
1328;SDS011;658;48.820;9.354;2022-09-23T22:12:23;2.10;;;2.00;;
1328;SDS011;658;48.820;9.354;2022-09-23T22:16:24;2.47;;;2.37;;
1328;SDS011;658;48.820;9.354;2022-09-23T22:20:25;2.37;;;2.17;;
1328;SDS011;658;48.820;9.354;2022-09-23T22:24:27;2.80;;;2.60;;
1328;SDS011;658;48.820;9.354;2022-09-23T22:28:27;2.67;;;2.47;;
1328;SDS011;658;48.820;9.354;2022-09-23T22:32:46;2.47;;;2.27;;
1328;SDS011;658;48.820;9.354;2022-09-23T22:36:47;2.80;;;2.60;;
1328;SDS011;658;48.820;9.354;2022-09-23T22:40:48;2.50;;;2.30;;
1328;SDS011;658;48.820;9.354;2022-09-23T22:44:49;2.63;;;2.43;;
1328;SDS011;658;48.820;9.354;2022-09-23T22:48:50;2.87;;;2.67;;
1328;SDS011;658;48.820;9.354;2022-09-23T22:52:52;3.07;;;2.87;;
1328;SDS011;658;48.820;9.354;2022-09-23T22:56:53;2.53;;;2.33;;
1328;SDS011;658;48.820;9.354;2022-09-23T23:00:54;2.30;;;2.20;;
1328;SDS011;658;48.820;9.354;2022-09-23T23:04:56;3.17;;;2.97;;
1328;SDS011;658;48.820;9.354;2022-09-23T23:08:57;2.60;;;2.50;;
1328;SDS011;658;48.820;9.354;2022-09-23T23:12:58;2.43;;;2.33;;
1328;SDS011;658;48.820;9.354;2022-09-23T23:16:59;2.80;;;2.60;;
1328;SDS011;658;48.820;9.354;2022-09-23T23:21:04;2.50;;;2.40;;
1328;SDS011;658;48.820;9.354;2022-09-23T23:25:08;2.23;;;2.13;;
1328;SDS011;658;48.820;9.354;2022-09-23T23:29:10;2.40;;;2.30;;
1328;SDS011;658;48.820;9.354;2022-09-23T23:33:12;2.63;;;2.53;;
1328;SDS011;658;48.820;9.354;2022-09-23T23:37:13;2.70;;;2.60;;
1328;SDS011;658;48.820;9.354;2022-09-23T23:41:17;3.03;;;2.83;;
1328;SDS011;658;48.820;9.354;2022-09-23T23:45:20;2.53;;;2.43;;
1328;SDS011;658;48.820;9.354;2022-09-23T23:49:21;2.73;;;2.53;;
1328;SDS011;658;48.820;9.354;2022-09-23T23:53:22;3.07;;;2.87;;
1328;SDS011;658;48.820;9.354;2022-09-23T23:57:23;2.77;;;2.60;;
